Philadelphia, Pennsylvania
Traffic Map
Current Weather Conditions
Philadelphia, Pennsylvania
Overcast
Overcast
62°
Feels Like: 62°
Wind Chill: 62° Ceiling: 6000
Heat Index: 62° Visibility: 10mi
Dew Point: 45° Wind: 13mph
Humidity: 53% Direction: 120° (ESE)
Pressure: 30.2in Gusts: 22mph
Raw Report DataKPHL 242054Z 12011G19KT 10SM SCT047 OVC060 17/07 A3020 RMK AO2 SLP224 T01670072 56028 $
Traffic Incident Summary
Active as of:
Severity:
Category:
InformationThere was an issue retrieving the traffic information for this location. Please try a different location or try again shortly.
Advertisements